Time;durP1;ratioP1;P1;durP2;ratioP2;P2;SDS_P1;SDS_P2;PMS_P1;PMS_P2;Temp;Humidity;BMP_temperature;BMP_pressure;BME280_temperature;BME280_humidity;BME280_pressure;Samples;Min_cycle;Max_cycle;Signal;HPM_P1;HPM_P2
2023/05/08 00:00:57;;;;;;;9.93;6.37;;;;;;;;;;5054023;28;20141;-77
2023/05/08 00:03:22;;;;;;;9.47;6.83;;;;;;;;;;5071939;28;20036;-75
2023/05/08 00:05:48;;;;;;;9.20;6.47;;;;;;;;;;5053907;28;20488;-79
2023/05/08 00:08:13;;;;;;;7.90;5.93;;;;;;;;;;5072101;28;20226;-77
2023/05/08 00:10:39;;;;;;;10.27;5.93;;;;;;;;;;5054249;28;20570;-75
2023/05/08 00:13:05;;;;;;;11.27;7.03;;;;;;;;;;5054286;28;20137;-74
2023/05/08 00:15:30;;;;;;;9.57;6.80;;;;;;;;;;5054045;28;20028;-76
2023/05/08 00:17:56;;;;;;;8.10;6.53;;;;;;;;;;5071976;28;20063;-75
2023/05/08 00:20:21;;;;;;;8.00;6.27;;;;;;;;;;5072475;28;20107;-75
2023/05/08 00:22:47;;;;;;;10.87;6.63;;;;;;;;;;5072469;28;20477;-75
2023/05/08 00:25:12;;;;;;;10.63;6.47;;;;;;;;;;5071947;28;20024;-77
2023/05/08 00:27:38;;;;;;;11.23;6.53;;;;;;;;;;5072119;28;20051;-77
2023/05/08 00:30:05;;;;;;;9.23;6.20;;;;;;;;;;5053712;28;20074;-75
2023/05/08 00:32:31;;;;;;;11.77;6.97;;;;;;;;;;5071551;28;20537;-76
2023/05/08 00:34:56;;;;;;;9.27;6.20;;;;;;;;;;5053756;28;20121;-76
2023/05/08 00:37:22;;;;;;;14.53;7.60;;;;;;;;;;5053827;28;20063;-75
2023/05/08 00:39:47;;;;;;;9.07;6.20;;;;;;;;;;5053659;28;20381;-77
2023/05/08 00:42:13;;;;;;;10.77;6.73;;;;;;;;;;5053695;28;20025;-77
2023/05/08 00:44:39;;;;;;;10.83;6.97;;;;;;;;;;5071742;28;20481;-77
2023/05/08 00:47:05;;;;;;;12.20;7.20;;;;;;;;;;5070931;28;20039;-76
2023/05/08 00:49:31;;;;;;;13.13;7.40;;;;;;;;;;5071334;28;20028;-77
2023/05/08 00:51:57;;;;;;;11.63;7.47;;;;;;;;;;5071421;28;20039;-75
2023/05/08 00:54:22;;;;;;;10.13;7.47;;;;;;;;;;5053025;28;20152;-77
2023/05/08 00:56:50;;;;;;;12.90;7.47;;;;;;;;;;5053507;28;20531;-75
2023/05/08 00:59:19;;;;;;;10.17;7.60;;;;;;;;;;5053242;28;20020;-76
2023/05/08 01:01:46;;;;;;;10.53;7.37;;;;;;;;;;5052788;28;20043;-75
2023/05/08 01:04:13;;;;;;;11.43;7.80;;;;;;;;;;5071065;28;20543;-73
2023/05/08 01:06:38;;;;;;;10.93;7.73;;;;;;;;;;5071054;28;20279;-77
2023/05/08 01:09:04;;;;;;;11.67;7.27;;;;;;;;;;5071028;28;20032;-76
2023/05/08 01:11:58;;;;;;;11.93;7.23;;;;;;;;;;5071143;28;20028;-75
2023/05/08 01:14:31;;;;;;;11.80;8.13;;;;;;;;;;5053020;28;20020;-76
2023/05/08 01:17:15;;;;;;;13.93;7.93;;;;;;;;;;5052577;28;20103;-75
2023/05/08 01:20:13;;;;;;;11.17;7.27;;;;;;;;;;5053025;28;20024;-77
2023/05/08 01:22:53;;;;;;;11.50;7.50;;;;;;;;;;5070640;28;20047;-77
2023/05/08 01:25:22;;;;;;;12.00;7.00;;;;;;;;;;5070601;28;20024;-77
2023/05/08 01:28:12;;;;;;;16.60;7.73;;;;;;;;;;5052467;28;20380;-77
2023/05/08 01:31:07;;;;;;;13.90;7.17;;;;;;;;;;5070712;28;20054;-75
2023/05/08 01:33:42;;;;;;;16.33;7.70;;;;;;;;;;5023842;28;20029;-74
2023/05/08 01:36:14;;;;;;;15.80;7.10;;;;;;;;;;5052329;28;20052;-77
2023/05/08 01:38:52;;;;;;;;;;;;;;;;;;5052954;28;20028;-75
2023/05/08 01:41:27;;;;;;;20.50;8.13;;;;;;;;;;5052483;28;20367;-77
2023/05/08 01:44:07;;;;;;;11.40;6.90;;;;;;;;;;5069994;28;20078;-77
2023/05/08 01:46:33;;;;;;;9.40;7.17;;;;;;;;;;5070107;28;20074;-77
2023/05/08 01:49:16;;;;;;;10.53;7.43;;;;;;;;;;5070088;28;20052;-76
2023/05/08 01:51:52;;;;;;;11.13;8.03;;;;;;;;;;5051998;28;20032;-78
2023/05/08 01:54:22;;;;;;;9.53;7.03;;;;;;;;;;5069576;28;20562;-75
2023/05/08 01:56:52;;;;;;;11.93;7.55;;;;;;;;;;5052071;28;20052;-75
2023/05/08 01:59:20;;;;;;;15.70;8.17;;;;;;;;;;5051095;28;20127;-75
2023/05/08 02:01:48;;;;;;;12.00;7.33;;;;;;;;;;5069722;28;20541;-76
2023/05/08 02:04:15;;;;;;;11.97;7.93;;;;;;;;;;5069834;28;20039;-77
2023/05/08 02:06:41;;;;;;;13.67;7.97;;;;;;;;;;5070178;28;20059;-77
2023/05/08 02:09:08;;;;;;;13.13;7.93;;;;;;;;;;5069690;28;20072;-77
2023/05/08 02:11:36;;;;;;;10.93;7.43;;;;;;;;;;5069548;28;20035;-77
2023/05/08 02:14:03;;;;;;;11.73;8.13;;;;;;;;;;5070130;28;20035;-77
2023/05/08 02:16:30;;;;;;;9.77;7.30;;;;;;;;;;5051881;28;20365;-76
2023/05/08 02:18:59;;;;;;;13.10;8.23;;;;;;;;;;5051709;28;20404;-76
2023/05/08 02:21:26;;;;;;;12.23;8.30;;;;;;;;;;5069607;28;20090;-76
2023/05/08 02:23:55;;;;;;;14.43;8.10;;;;;;;;;;5051795;28;20036;-78
2023/05/08 02:26:22;;;;;;;10.73;7.87;;;;;;;;;;5051652;28;20115;-75
2023/05/08 02:28:49;;;;;;;11.27;7.60;;;;;;;;;;5051755;28;20044;-77
2023/05/08 02:31:17;;;;;;;13.20;8.13;;;;;;;;;;5051375;28;20086;-76
2023/05/08 02:33:44;;;;;;;11.67;7.43;;;;;;;;;;5051639;28;20082;-77
2023/05/08 02:36:12;;;;;;;15.47;8.90;;;;;;;;;;5069405;28;20024;-77
2023/05/08 02:38:42;;;;;;;11.27;7.83;;;;;;;;;;5069265;28;20476;-75
2023/05/08 02:41:09;;;;;;;11.03;7.53;;;;;;;;;;5069282;28;20040;-76
2023/05/08 02:43:35;;;;;;;11.57;7.73;;;;;;;;;;5069101;28;20120;-75
2023/05/08 02:46:16;;;;;;;12.07;8.33;;;;;;;;;;5069852;28;20107;-76
2023/05/08 02:49:06;;;;;;;10.03;7.70;;;;;;;;;;5069345;28;20029;-76
2023/05/08 02:51:54;;;;;;;11.60;8.50;;;;;;;;;;5051384;28;20428;-77
2023/05/08 02:54:35;;;;;;;13.50;8.47;;;;;;;;;;5069024;28;20079;-77
2023/05/08 02:57:16;;;;;;;11.75;8.20;;;;;;;;;;5069354;28;20108;-77
2023/05/08 02:59:49;;;;;;;11.10;7.53;;;;;;;;;;5069101;28;20025;-75
2023/05/08 03:02:21;;;;;;;11.20;7.53;;;;;;;;;;5051015;28;20036;-76
2023/05/08 03:04:54;;;;;;;13.38;8.48;;;;;;;;;;5069140;28;20062;-75
2023/05/08 03:07:24;;;;;;;11.17;8.30;;;;;;;;;;5050816;28;20036;-75
2023/05/08 03:09:57;;;;;;;10.47;8.03;;;;;;;;;;5069774;28;20031;-76
2023/05/08 03:12:26;;;;;;;11.27;8.13;;;;;;;;;;5054368;28;20024;-76
2023/05/08 03:15:17;;;;;;;11.40;8.07;;;;;;;;;;5055284;28;20480;-75
2023/05/08 03:17:46;;;;;;;12.90;8.10;;;;;;;;;;5055342;28;20111;-76
2023/05/08 03:20:16;;;;;;;13.47;8.43;;;;;;;;;;5072828;28;20028;-75
2023/05/08 03:22:43;;;;;;;14.47;8.27;;;;;;;;;;5072816;28;20051;-77
2023/05/08 03:25:10;;;;;;;11.93;8.40;;;;;;;;;;5054663;28;20020;-75
2023/05/08 03:27:37;;;;;;;11.00;7.17;;;;;;;;;;5072803;28;20480;-77
2023/05/08 03:30:05;;;;;;;13.73;8.37;;;;;;;;;;5072609;28;20050;-76
2023/05/08 03:32:32;;;;;;;10.63;7.50;;;;;;;;;;5072481;28;20020;-75
2023/05/08 03:34:58;;;;;;;12.77;8.20;;;;;;;;;;5073444;28;20039;-76
2023/05/08 03:37:27;;;;;;;13.20;7.83;;;;;;;;;;5072763;28;20032;-76
2023/05/08 03:39:53;;;;;;;11.17;7.00;;;;;;;;;;5054685;28;20119;-75
2023/05/08 03:42:21;;;;;;;12.30;8.03;;;;;;;;;;5072652;28;20024;-75
2023/05/08 03:44:51;;;;;;;14.27;8.20;;;;;;;;;;5072545;28;20032;-76
2023/05/08 03:47:20;;;;;;;11.53;7.53;;;;;;;;;;5054228;28;20035;-76
2023/05/08 03:49:48;;;;;;;13.77;8.20;;;;;;;;;;5072714;28;20040;-75
2023/05/08 03:52:14;;;;;;;14.53;9.27;;;;;;;;;;5072558;28;20527;-75
2023/05/08 03:54:40;;;;;;;12.53;7.33;;;;;;;;;;5072349;28;20142;-76
2023/05/08 03:57:06;;;;;;;11.13;7.43;;;;;;;;;;5054583;28;20032;-76
2023/05/08 04:00:01;;;;;;;13.13;7.30;;;;;;;;;;5072631;28;20031;-77
2023/05/08 04:02:42;;;;;;;10.53;7.03;;;;;;;;;;5054111;28;20032;-76
2023/05/08 04:05:23;;;;;;;11.57;7.30;;;;;;;;;;5072345;28;20036;-77
2023/05/08 04:08:02;;;;;;;12.80;7.70;;;;;;;;;;5053607;28;20090;-76
2023/05/08 04:10:37;;;;;;;11.50;7.70;;;;;;;;;;5072103;28;20028;-77
2023/05/08 04:13:07;;;;;;;12.37;7.67;;;;;;;;;;5071961;28;20384;-75
2023/05/08 04:15:56;;;;;;;13.40;7.23;;;;;;;;;;5054085;28;20020;-76
2023/05/08 04:18:27;;;;;;;15.93;7.80;;;;;;;;;;5053130;28;20056;-76
2023/05/08 04:20:55;;;;;;;11.32;7.72;;;;;;;;;;5071711;28;20032;-77
2023/05/08 04:23:21;;;;;;;10.33;6.57;;;;;;;;;;5052443;28;20028;-76
2023/05/08 04:25:50;;;;;;;10.93;7.30;;;;;;;;;;5053956;28;20066;-74
2023/05/08 04:28:16;;;;;;;14.27;8.53;;;;;;;;;;5071911;28;20021;-76
2023/05/08 04:30:43;;;;;;;12.50;7.37;;;;;;;;;;5053792;28;20028;-75
2023/05/08 04:33:09;;;;;;;10.40;7.27;;;;;;;;;;5053318;28;20475;-75
2023/05/08 04:35:35;;;;;;;12.63;7.77;;;;;;;;;;5054104;28;20062;-76
2023/05/08 04:38:01;;;;;;;13.17;7.10;;;;;;;;;;5071858;28;20361;-76
2023/05/08 04:40:27;;;;;;;10.17;7.33;;;;;;;;;;5071296;28;20139;-76
2023/05/08 04:42:52;;;;;;;13.23;7.07;;;;;;;;;;5072333;28;20052;-75
2023/05/08 04:45:18;;;;;;;11.83;7.40;;;;;;;;;;5053888;28;20020;-75
2023/05/08 04:47:44;;;;;;;10.30;7.27;;;;;;;;;;5053524;28;20174;-77
2023/05/08 04:50:10;;;;;;;13.73;6.87;;;;;;;;;;5071203;28;20034;-76
2023/05/08 04:52:35;;;;;;;11.33;7.17;;;;;;;;;;5053496;28;20384;-75
2023/05/08 04:55:01;;;;;;;12.73;7.43;;;;;;;;;;5071129;28;20048;-75
2023/05/08 04:57:27;;;;;;;11.13;7.17;;;;;;;;;;5070874;28;20025;-74
2023/05/08 04:59:52;;;;;;;8.10;6.33;;;;;;;;;;5053097;28;20062;-75
2023/05/08 05:02:18;;;;;;;10.80;6.13;;;;;;;;;;5053393;28;20016;-75
2023/05/08 05:04:43;;;;;;;9.13;6.37;;;;;;;;;;5053383;28;20103;-75
2023/05/08 05:07:09;;;;;;;8.67;6.07;;;;;;;;;;5070876;28;20048;-76
2023/05/08 05:09:37;;;;;;;9.73;6.43;;;;;;;;;;5070824;28;20534;-76
2023/05/08 05:12:04;;;;;;;8.47;6.00;;;;;;;;;;5053157;28;20036;-75
2023/05/08 05:14:30;;;;;;;10.07;6.07;;;;;;;;;;5070454;28;20024;-75
2023/05/08 05:16:55;;;;;;;8.60;6.23;;;;;;;;;;5070537;28;20028;-76
2023/05/08 05:19:21;;;;;;;12.20;6.20;;;;;;;;;;5052189;28;20070;-76
2023/05/08 05:21:46;;;;;;;8.33;5.53;;;;;;;;;;5052752;28;20021;-75
2023/05/08 05:24:12;;;;;;;9.00;6.10;;;;;;;;;;5070131;28;20440;-75
2023/05/08 05:26:37;;;;;;;8.73;5.30;;;;;;;;;;5052719;28;20122;-76
2023/05/08 05:29:03;;;;;;;8.87;6.17;;;;;;;;;;5070485;28;20364;-76
2023/05/08 05:31:29;;;;;;;8.33;5.90;;;;;;;;;;5070527;28;20059;-76
2023/05/08 05:33:55;;;;;;;8.63;5.03;;;;;;;;;;5052233;28;20078;-76
2023/05/08 05:36:21;;;;;;;10.20;5.70;;;;;;;;;;5070384;28;20024;-76
2023/05/08 05:38:46;;;;;;;6.67;5.40;;;;;;;;;;5052913;28;20031;-73
2023/05/08 05:41:12;;;;;;;8.07;5.50;;;;;;;;;;5052399;28;20980;-76
2023/05/08 05:43:37;;;;;;;8.43;5.93;;;;;;;;;;5070384;28;20070;-77
2023/05/08 05:46:07;;;;;;;8.70;5.40;;;;;;;;;;5070952;28;20047;-76
2023/05/08 05:48:33;;;;;;;6.30;5.37;;;;;;;;;;5070129;28;20103;-77
2023/05/08 05:50:59;;;;;;;9.17;5.77;;;;;;;;;;5070279;28;20104;-74
2023/05/08 05:53:24;;;;;;;7.10;5.40;;;;;;;;;;5052142;28;20085;-73
2023/05/08 05:55:50;;;;;;;9.40;5.83;;;;;;;;;;5052165;28;20545;-76
2023/05/08 05:58:15;;;;;;;7.17;5.27;;;;;;;;;;5069934;28;20118;-77
2023/05/08 06:00:42;;;;;;;11.53;6.27;;;;;;;;;;5069985;28;20384;-77
2023/05/08 06:03:07;;;;;;;10.30;6.33;;;;;;;;;;5070120;28;20021;-75
2023/05/08 06:05:33;;;;;;;13.90;6.00;;;;;;;;;;5052130;28;20533;-76
2023/05/08 06:07:59;;;;;;;7.07;5.70;;;;;;;;;;5052182;28;20028;-77
2023/05/08 06:10:25;;;;;;;9.40;6.50;;;;;;;;;;5070070;28;20443;-76
2023/05/08 06:12:50;;;;;;;7.93;6.00;;;;;;;;;;5051931;28;20385;-75
2023/05/08 06:15:16;;;;;;;11.30;7.50;;;;;;;;;;5051438;28;20024;-76
2023/05/08 06:17:41;;;;;;;8.63;6.07;;;;;;;;;;5069970;28;20047;-75
2023/05/08 06:20:07;;;;;;;10.93;6.20;;;;;;;;;;5051517;28;20038;-77
2023/05/08 06:22:33;;;;;;;7.23;6.00;;;;;;;;;;5069111;28;20024;-75
2023/05/08 06:24:59;;;;;;;7.87;5.70;;;;;;;;;;5069888;28;20394;-76
2023/05/08 06:27:25;;;;;;;8.93;5.57;;;;;;;;;;5051313;28;20391;-75
2023/05/08 06:29:51;;;;;;;8.13;5.57;;;;;;;;;;5051411;28;20028;-75
2023/05/08 06:32:18;;;;;;;8.77;6.33;;;;;;;;;;5069261;28;20021;-76
2023/05/08 06:34:44;;;;;;;7.73;5.87;;;;;;;;;;5069184;28;20020;-75
2023/05/08 06:37:10;;;;;;;9.43;5.93;;;;;;;;;;5069384;28;20051;-76
2023/05/08 06:39:35;;;;;;;9.03;5.73;;;;;;;;;;5051466;28;20032;-76
2023/05/08 06:42:02;;;;;;;9.67;6.30;;;;;;;;;;5051258;28;20077;-75
2023/05/08 06:44:27;;;;;;;8.20;6.10;;;;;;;;;;5068947;28;20123;-75
2023/05/08 06:46:54;;;;;;;8.23;6.30;;;;;;;;;;5051308;28;20111;-76
2023/05/08 06:49:19;;;;;;;9.23;6.03;;;;;;;;;;5051619;28;20024;-74
2023/05/08 06:51:45;;;;;;;10.48;6.25;;;;;;;;;;5051453;28;20039;-74
2023/05/08 06:54:10;;;;;;;9.00;6.38;;;;;;;;;;5069608;28;20049;-75
2023/05/08 06:56:36;;;;;;;7.60;5.53;;;;;;;;;;5051496;28;20029;-76
2023/05/08 06:59:02;;;;;;;7.38;5.63;;;;;;;;;;5051332;28;20536;-75
2023/05/08 07:01:27;;;;;;;7.93;6.18;;;;;;;;;;5051297;28;20395;-76
2023/05/08 07:03:53;;;;;;;22.63;7.13;;;;;;;;;;5051676;28;20032;-75
2023/05/08 07:06:18;;;;;;;8.82;5.43;;;;;;;;;;5069008;28;20024;-75
2023/05/08 07:08:44;;;;;;;10.60;6.65;;;;;;;;;;5069926;28;20028;-76
2023/05/08 07:11:09;;;;;;;10.40;5.75;;;;;;;;;;5070095;28;20499;-76
2023/05/08 07:13:36;;;;;;;7.13;5.40;;;;;;;;;;5069742;28;20023;-76
2023/05/08 07:16:02;;;;;;;7.80;5.28;;;;;;;;;;5069719;28;20021;-77
2023/05/08 07:18:27;;;;;;;8.70;5.22;;;;;;;;;;5051200;28;20208;-76
2023/05/08 07:20:53;;;;;;;8.93;5.97;;;;;;;;;;5051124;28;20028;-76
2023/05/08 07:23:18;;;;;;;7.43;5.55;;;;;;;;;;5051079;28;20029;-76
2023/05/08 07:25:44;;;;;;;10.68;6.00;;;;;;;;;;5051482;28;20052;-76
2023/05/08 07:28:10;;;;;;;8.32;5.07;;;;;;;;;;5069606;28;20024;-75
2023/05/08 07:30:36;;;;;;;9.27;5.32;;;;;;;;;;5069352;28;20056;-77
2023/05/08 07:33:02;;;;;;;6.35;5.50;;;;;;;;;;5051325;28;20040;-76
2023/05/08 07:35:28;;;;;;;8.40;4.93;;;;;;;;;;5050907;28;20040;-76
2023/05/08 07:37:54;;;;;;;7.43;5.30;;;;;;;;;;5050715;28;20024;-77
2023/05/08 07:40:19;;;;;;;8.27;5.55;;;;;;;;;;5068984;28;20024;-75
2023/05/08 07:42:45;;;;;;;7.20;5.47;;;;;;;;;;5068762;28;20028;-76
2023/05/08 07:45:12;;;;;;;10.35;6.05;;;;;;;;;;5069175;28;20113;-74
2023/05/08 07:47:38;;;;;;;7.93;5.57;;;;;;;;;;5068696;28;20024;-76
2023/05/08 07:50:04;;;;;;;7.22;5.40;;;;;;;;;;5050831;28;20369;-75
2023/05/08 07:52:30;;;;;;;7.00;5.32;;;;;;;;;;5068292;28;20020;-77
2023/05/08 07:54:57;;;;;;;14.23;6.00;;;;;;;;;;5068822;28;20048;-75
2023/05/08 07:57:22;;;;;;;8.57;4.95;;;;;;;;;;5050388;28;20109;-76
2023/05/08 07:59:48;;;;;;;6.45;5.00;;;;;;;;;;5072355;28;20059;-76
2023/05/08 08:02:13;;;;;;;6.65;5.00;;;;;;;;;;5072264;28;20035;-78
2023/05/08 08:04:40;;;;;;;6.38;4.47;;;;;;;;;;5072638;28;20030;-77
2023/05/08 08:07:07;;;;;;;9.85;5.35;;;;;;;;;;5054976;28;20036;-76
2023/05/08 08:09:33;;;;;;;6.53;5.18;;;;;;;;;;5054350;28;20451;-77
2023/05/08 08:11:59;;;;;;;6.13;4.60;;;;;;;;;;5054238;28;20073;-76
2023/05/08 08:14:24;;;;;;;5.63;4.40;;;;;;;;;;5072456;28;20027;-75
2023/05/08 08:16:50;;;;;;;5.32;4.10;;;;;;;;;;5055057;28;20028;-78
2023/05/08 08:19:15;;;;;;;7.65;4.70;;;;;;;;;;5072952;28;20024;-76
2023/05/08 08:21:42;;;;;;;7.05;5.20;;;;;;;;;;5072193;28;20028;-76
2023/05/08 08:24:07;;;;;;;5.20;4.25;;;;;;;;;;5054496;28;20028;-75
2023/05/08 08:26:33;;;;;;;5.95;4.47;;;;;;;;;;5072026;28;20020;-75
2023/05/08 08:28:58;;;;;;;6.05;4.45;;;;;;;;;;5054004;28;20115;-76
2023/05/08 08:31:24;;;;;;;5.25;4.50;;;;;;;;;;5053550;28;20380;-75
2023/05/08 08:33:50;;;;;;;5.38;3.92;;;;;;;;;;5037536;28;20119;-77
2023/05/08 08:36:15;;;;;;;5.40;3.83;;;;;;;;;;5053829;28;20480;-77
2023/05/08 08:38:41;;;;;;;5.93;4.38;;;;;;;;;;5072395;28;20029;-78
2023/05/08 08:41:07;;;;;;;5.07;4.18;;;;;;;;;;5071017;28;20166;-77
2023/05/08 08:43:34;;;;;;;6.32;4.00;;;;;;;;;;5071804;28;20073;-77
2023/05/08 08:46:11;;;;;;;6.15;4.32;;;;;;;;;;5072278;28;20044;-76
2023/05/08 08:48:37;;;;;;;5.80;4.30;;;;;;;;;;5053464;28;20028;-76
2023/05/08 08:51:08;;;;;;;5.05;4.43;;;;;;;;;;5071914;28;20080;-77
2023/05/08 08:53:41;;;;;;;5.45;4.30;;;;;;;;;;5071879;28;20403;-76
2023/05/08 08:56:08;;;;;;;5.32;3.78;;;;;;;;;;5053839;28;20020;-76
2023/05/08 08:58:39;;;;;;;5.70;4.10;;;;;;;;;;5053914;28;20086;-76
2023/05/08 09:01:06;;;;;;;7.22;4.80;;;;;;;;;;5053723;28;20020;-74
2023/05/08 09:03:32;;;;;;;5.57;4.05;;;;;;;;;;5053384;28;20028;-75
2023/05/08 09:06:01;;;;;;;4.47;4.05;;;;;;;;;;5053710;28;20028;-77
2023/05/08 09:08:27;;;;;;;4.22;3.83;;;;;;;;;;5070778;28;20028;-75
2023/05/08 09:10:55;;;;;;;6.70;4.70;;;;;;;;;;5087116;28;20016;-78
2023/05/08 09:13:21;;;;;;;5.75;3.90;;;;;;;;;;5071449;28;20024;-78
2023/05/08 09:15:49;;;;;;;10.65;4.28;;;;;;;;;;5071270;28;20020;-77
2023/05/08 09:18:14;;;;;;;6.47;4.15;;;;;;;;;;5053758;28;20027;-75
2023/05/08 09:20:40;;;;;;;6.32;4.05;;;;;;;;;;5087464;28;20028;-76
2023/05/08 09:23:06;;;;;;;5.40;4.32;;;;;;;;;;5053250;28;20530;-78
2023/05/08 09:25:45;;;;;;;5.18;4.10;;;;;;;;;;5071059;28;20025;-77
2023/05/08 09:28:22;;;;;;;5.45;4.25;;;;;;;;;;5053498;28;20027;-76
2023/05/08 09:30:57;;;;;;;4.38;3.85;;;;;;;;;;5053330;28;20036;-77
2023/05/08 09:33:26;;;;;;;5.43;4.20;;;;;;;;;;5070799;28;20020;-75
2023/05/08 09:35:54;;;;;;;5.28;4.00;;;;;;;;;;5053236;28;20465;-77
2023/05/08 09:38:33;;;;;;;6.15;4.40;;;;;;;;;;5052837;28;20361;-74
2023/05/08 09:41:20;;;;;;;4.97;3.85;;;;;;;;;;5086259;28;20423;-75
2023/05/08 09:44:00;;;;;;;5.53;4.03;;;;;;;;;;5070838;28;20483;-77
2023/05/08 09:46:26;;;;;;;6.13;3.63;;;;;;;;;;5071270;28;20047;-77
2023/05/08 09:48:59;;;;;;;7.47;3.33;;;;;;;;;;5053267;28;20479;-76
2023/05/08 09:51:27;;;;;;;5.03;4.03;;;;;;;;;;5070320;28;20097;-76
2023/05/08 09:53:54;;;;;;;4.45;3.78;;;;;;;;;;5085838;28;20064;-78
2023/05/08 09:56:33;;;;;;;8.23;3.97;;;;;;;;;;5070516;28;20484;-76
2023/05/08 09:59:01;;;;;;;5.47;4.10;;;;;;;;;;5070718;28;20025;-78
2023/05/08 10:01:35;;;;;;;7.22;5.95;;;;;;;;;;5070018;28;20103;-75
2023/05/08 10:04:02;;;;;;;3.70;3.15;;;;;;;;;;5070365;28;20471;-76
2023/05/08 10:06:29;;;;;;;7.35;3.95;;;;;;;;;;5052195;28;20028;-75
2023/05/08 10:09:13;;;;;;;4.60;3.60;;;;;;;;;;5070665;28;20070;-74
2023/05/08 10:11:52;;;;;;;5.28;3.38;;;;;;;;;;5070009;28;20024;-76
2023/05/08 10:14:19;;;;;;;8.95;3.75;;;;;;;;;;5070676;28;20027;-75
2023/05/08 10:16:48;;;;;;;5.18;3.97;;;;;;;;;;5070112;28;20028;-76
2023/05/08 10:19:17;;;;;;;4.63;2.97;;;;;;;;;;5052358;28;20111;-78
2023/05/08 10:21:51;;;;;;;6.72;3.55;;;;;;;;;;5069461;28;20475;-74
2023/05/08 10:24:32;;;;;;;7.22;3.45;;;;;;;;;;5052774;28;20434;-76
2023/05/08 10:27:18;;;;;;;3.45;3.10;;;;;;;;;;5070360;28;20422;-77
2023/05/08 10:29:53;;;;;;;7.10;2.80;;;;;;;;;;5052207;28;20371;-77
2023/05/08 10:32:20;;;;;;;4.28;3.15;;;;;;;;;;5069878;28;20032;-75
2023/05/08 10:34:51;;;;;;;3.75;3.03;;;;;;;;;;5051776;28;20438;-76
2023/05/08 10:37:16;;;;;;;4.65;3.28;;;;;;;;;;5051767;28;20383;-77
2023/05/08 10:39:43;;;;;;;5.25;3.15;;;;;;;;;;5070107;28;20475;-76
2023/05/08 10:42:11;;;;;;;4.45;2.83;;;;;;;;;;5069584;28;20028;-76
2023/05/08 10:44:37;;;;;;;3.38;3.00;;;;;;;;;;5035077;28;20083;-76
2023/05/08 10:47:19;;;;;;;3.05;2.75;;;;;;;;;;5085532;28;20031;-76
2023/05/08 10:50:14;;;;;;;7.57;3.35;;;;;;;;;;5084814;28;20042;-77
2023/05/08 10:53:12;;;;;;;4.65;2.83;;;;;;;;;;5051259;28;20082;-76
2023/05/08 10:55:38;;;;;;;5.10;3.03;;;;;;;;;;5084676;28;20044;-76
2023/05/08 10:58:14;;;;;;;3.10;2.80;;;;;;;;;;5051214;28;20107;-76
2023/05/08 11:01:08;;;;;;;4.47;3.20;;;;;;;;;;5069211;28;20111;-77
2023/05/08 11:03:42;;;;;;;4.95;3.13;;;;;;;;;;5069172;28;20380;-75
2023/05/08 11:06:08;;;;;;;3.83;2.60;;;;;;;;;;5069431;28;20108;-75
2023/05/08 11:08:44;;;;;;;4.13;3.13;;;;;;;;;;5051003;28;20158;-76
2023/05/08 11:11:22;;;;;;;3.85;3.33;;;;;;;;;;5069482;28;20024;-76
2023/05/08 11:13:54;;;;;;;3.40;3.10;;;;;;;;;;5051149;28;20028;-76
2023/05/08 11:17:02;;;;;;;3.60;3.10;;;;;;;;;;5051509;28;20028;-75
2023/05/08 11:19:28;;;;;;;3.17;2.33;;;;;;;;;;5042893;28;20107;-76
2023/05/08 11:22:21;;;;;;;38.60;23.88;;;;;;;;;;5051729;28;20760;-76
2023/05/08 11:24:52;;;;;;;4.70;3.25;;;;;;;;;;5051195;28;20029;-77
2023/05/08 11:27:29;;;;;;;4.82;3.20;;;;;;;;;;5069482;28;20499;-77
2023/05/08 11:30:17;;;;;;;4.13;3.35;;;;;;;;;;5084561;28;20052;-75
2023/05/08 11:33:09;;;;;;;4.97;2.70;;;;;;;;;;5052775;28;20044;-76
2023/05/08 11:35:51;;;;;;;3.38;2.80;;;;;;;;;;5048032;28;20089;-78
2023/05/08 11:38:27;;;;;;;3.38;2.97;;;;;;;;;;5038386;28;20215;-76
2023/05/08 11:41:05;;;;;;;5.22;3.55;;;;;;;;;;5072794;28;20039;-75
2023/05/08 11:43:31;;;;;;;11.95;3.45;;;;;;;;;;5073041;28;20058;-76
2023/05/08 11:46:03;;;;;;;5.40;3.28;;;;;;;;;;5088799;28;20032;-76
2023/05/08 11:48:29;;;;;;;;;;;;;;;;;;5055695;28;20508;-77
2023/05/08 11:50:55;;;;;;;7.25;3.45;;;;;;;;;;5054849;28;20007;-76
2023/05/08 11:53:20;;;;;;;5.00;2.95;;;;;;;;;;5072701;28;20048;-76
2023/05/08 11:55:51;;;;;;;4.13;3.70;;;;;;;;;;5072310;28;20186;-75
2023/05/08 11:58:17;;;;;;;5.38;3.45;;;;;;;;;;5054740;28;20424;-75
2023/05/08 12:00:44;;;;;;;4.40;2.88;;;;;;;;;;5072526;28;20071;-75
2023/05/08 12:03:18;;;;;;;4.70;3.00;;;;;;;;;;5054796;28;20052;-76
2023/05/08 12:05:45;;;;;;;3.95;3.20;;;;;;;;;;5072373;28;20096;-76
2023/05/08 12:08:12;;;;;;;4.85;2.92;;;;;;;;;;5088164;28;20029;-75
2023/05/08 12:10:52;;;;;;;3.20;2.67;;;;;;;;;;5088159;28;20024;-75
2023/05/08 12:13:26;;;;;;;4.43;3.05;;;;;;;;;;5072796;28;20016;-76
2023/05/08 12:15:53;;;;;;;5.57;2.60;;;;;;;;;;5072324;28;20032;-75
2023/05/08 12:18:20;;;;;;;2.72;2.50;;;;;;;;;;5054014;28;20085;-77
2023/05/08 12:20:55;;;;;;;3.10;2.40;;;;;;;;;;5072191;28;20483;-75
2023/05/08 12:23:22;;;;;;;4.25;2.63;;;;;;;;;;5053929;28;20025;-75
2023/05/08 12:25:52;;;;;;;2.72;2.45;;;;;;;;;;5054345;28;20514;-76
2023/05/08 12:28:17;;;;;;;4.38;2.80;;;;;;;;;;5072895;28;20310;-76
2023/05/08 12:30:43;;;;;;;5.40;2.42;;;;;;;;;;5054471;28;20236;-76
2023/05/08 12:33:10;;;;;;;3.20;2.80;;;;;;;;;;5072583;28;20039;-77
2023/05/08 12:35:40;;;;;;;4.57;2.53;;;;;;;;;;5054658;28;20119;-77
2023/05/08 12:38:07;;;;;;;3.15;2.53;;;;;;;;;;5072445;28;20111;-75
2023/05/08 12:40:41;;;;;;;4.25;2.70;;;;;;;;;;5054361;28;20781;-76
2023/05/08 12:43:08;;;;;;;4.22;2.58;;;;;;;;;;5053655;28;20119;-77
2023/05/08 12:45:37;;;;;;;4.38;2.67;;;;;;;;;;5053272;28;20033;-77
2023/05/08 12:48:06;;;;;;;6.93;3.53;;;;;;;;;;5053211;28;20434;-77
2023/05/08 12:50:37;;;;;;;2.92;2.63;;;;;;;;;;5053467;28;20518;-77
2023/05/08 12:53:05;;;;;;;5.43;3.05;;;;;;;;;;5071957;28;20020;-76
2023/05/08 12:55:32;;;;;;;3.20;2.50;;;;;;;;;;5053599;28;20525;-77
2023/05/08 12:58:05;;;;;;;4.90;3.70;;;;;;;;;;5071565;28;20035;-76
2023/05/08 13:00:43;;;;;;;4.03;3.65;;;;;;;;;;5071706;28;20035;-76
2023/05/08 13:03:10;;;;;;;15.23;11.93;;;;;;;;;;5071108;28;20032;-77
2023/05/08 13:05:40;;;;;;;4.72;3.50;;;;;;;;;;5053879;28;20055;-78
2023/05/08 13:08:10;;;;;;;3.40;2.88;;;;;;;;;;5071339;28;20048;-75
2023/05/08 13:10:52;;;;;;;5.65;4.60;;;;;;;;;;5053258;28;20075;-75
2023/05/08 13:13:40;;;;;;;16.13;6.95;;;;;;;;;;5071404;28;20048;-75
2023/05/08 13:16:06;;;;;;;2.58;2.35;;;;;;;;;;5086888;28;20017;-77
2023/05/08 13:18:35;;;;;;;7.03;3.45;;;;;;;;;;5071118;28;20100;-78
2023/05/08 13:21:01;;;;;;;4.13;2.40;;;;;;;;;;5053200;28;20032;-76
2023/05/08 13:23:27;;;;;;;2.95;2.58;;;;;;;;;;5071072;28;20031;-76
2023/05/08 13:25:52;;;;;;;4.35;2.35;;;;;;;;;;5070734;28;20096;-76
2023/05/08 13:28:18;;;;;;;5.00;2.22;;;;;;;;;;5070938;28;20377;-75
2023/05/08 13:30:44;;;;;;;3.75;2.40;;;;;;;;;;5070866;28;20028;-76
2023/05/08 13:33:09;;;;;;;3.08;2.10;;;;;;;;;;5071099;28;20028;-76
2023/05/08 13:35:35;;;;;;;5.13;1.95;;;;;;;;;;5070238;28;20024;-77
2023/05/08 13:38:01;;;;;;;2.58;2.05;;;;;;;;;;5070896;28;20479;-76
2023/05/08 13:40:26;;;;;;;4.07;2.25;;;;;;;;;;5052560;28;20086;-76
2023/05/08 13:42:52;;;;;;;3.78;1.98;;;;;;;;;;5052982;28;20058;-76
2023/05/08 13:45:18;;;;;;;2.20;2.00;;;;;;;;;;5071421;28;20027;-78
2023/05/08 13:47:47;;;;;;;2.78;2.55;;;;;;;;;;5071257;28;20063;-76
2023/05/08 13:50:14;;;;;;;4.05;2.67;;;;;;;;;;5053117;28;20020;-76
2023/05/08 13:52:41;;;;;;;4.35;2.47;;;;;;;;;;5070837;28;20079;-76
2023/05/08 13:55:08;;;;;;;3.47;1.90;;;;;;;;;;5085824;28;20075;-76
2023/05/08 13:57:34;;;;;;;4.93;2.40;;;;;;;;;;5052709;28;20046;-76
2023/05/08 14:00:00;;;;;;;2.92;2.05;;;;;;;;;;5052629;28;20115;-77
2023/05/08 14:02:26;;;;;;;3.22;1.70;;;;;;;;;;5052823;28;20423;-76
2023/05/08 14:04:53;;;;;;;6.80;2.22;;;;;;;;;;5070269;28;20031;-75
2023/05/08 14:07:18;;;;;;;3.28;1.92;;;;;;;;;;5052708;28;20479;-75
2023/05/08 14:09:45;;;;;;;3.78;1.90;;;;;;;;;;5070308;28;20048;-75
2023/05/08 14:12:11;;;;;;;3.67;2.13;;;;;;;;;;5052687;28;20119;-76
2023/05/08 14:14:36;;;;;;;2.38;2.03;;;;;;;;;;5070775;28;20103;-76
2023/05/08 14:17:04;;;;;;;2.72;1.80;;;;;;;;;;5070603;28;20040;-77
2023/05/08 14:19:30;;;;;;;6.15;1.77;;;;;;;;;;5035827;28;20123;-75
2023/05/08 14:21:56;;;;;;;3.47;1.58;;;;;;;;;;5052596;28;20550;-76
2023/05/08 14:24:21;;;;;;;3.05;1.70;;;;;;;;;;5070824;28;20365;-75
2023/05/08 14:26:47;;;;;;;4.00;2.03;;;;;;;;;;5069965;28;20029;-73
2023/05/08 14:29:13;;;;;;;2.45;1.23;;;;;;;;;;5070075;28;20147;-76
2023/05/08 14:31:38;;;;;;;2.75;1.48;;;;;;;;;;5069552;28;20040;-76
2023/05/08 14:34:04;;;;;;;1.60;1.50;;;;;;;;;;5070144;28;20106;-74
2023/05/08 14:36:30;;;;;;;1.65;1.55;;;;;;;;;;5085214;28;20032;-75
2023/05/08 14:38:55;;;;;;;2.05;1.80;;;;;;;;;;5069828;28;20395;-76
2023/05/08 14:41:21;;;;;;;5.38;1.73;;;;;;;;;;5085130;28;20021;-77
2023/05/08 14:43:49;;;;;;;6.07;1.90;;;;;;;;;;5069798;28;20047;-74
2023/05/08 14:46:15;;;;;;;4.45;1.67;;;;;;;;;;5069424;28;20020;-78
2023/05/08 14:48:41;;;;;;;2.42;1.67;;;;;;;;;;5069502;28;20392;-75
2023/05/08 14:51:07;;;;;;;3.50;1.50;;;;;;;;;;5068233;28;20446;-76